sensor_id;sensor_type;location;lat;lon;timestamp;temperature;humidity
21039;DHT22;10678;51.002;4.786;2022-10-16T00:02:24;14.80;99.90
21039;DHT22;10678;51.002;4.786;2022-10-16T00:04:50;14.80;99.90
21039;DHT22;10678;51.002;4.786;2022-10-16T00:07:16;14.80;99.90
21039;DHT22;10678;51.002;4.786;2022-10-16T00:09:41;14.70;99.90
21039;DHT22;10678;51.002;4.786;2022-10-16T00:12:07;14.70;99.90
21039;DHT22;10678;51.002;4.786;2022-10-16T00:14:33;14.80;99.90
21039;DHT22;10678;51.002;4.786;2022-10-16T00:16:58;14.80;99.90
21039;DHT22;10678;51.002;4.786;2022-10-16T00:19:24;14.70;99.90
21039;DHT22;10678;51.002;4.786;2022-10-16T00:21:49;14.70;99.90
21039;DHT22;10678;51.002;4.786;2022-10-16T00:24:15;14.70;99.90
21039;DHT22;10678;51.002;4.786;2022-10-16T00:26:41;14.70;99.90
21039;DHT22;10678;51.002;4.786;2022-10-16T00:29:07;14.70;99.90
21039;DHT22;10678;51.002;4.786;2022-10-16T00:31:33;14.60;99.90
21039;DHT22;10678;51.002;4.786;2022-10-16T00:33:58;14.70;99.90
21039;DHT22;10678;51.002;4.786;2022-10-16T00:36:26;14.70;99.90
21039;DHT22;10678;51.002;4.786;2022-10-16T00:38:56;14.70;99.90
21039;DHT22;10678;51.002;4.786;2022-10-16T00:41:24;14.70;99.90
21039;DHT22;10678;51.002;4.786;2022-10-16T00:43:56;14.70;99.90
21039;DHT22;10678;51.002;4.786;2022-10-16T00:49:10;14.70;99.90
21039;DHT22;10678;51.002;4.786;2022-10-16T00:51:43;14.60;99.90
21039;DHT22;10678;51.002;4.786;2022-10-16T00:54:13;14.60;99.90
21039;DHT22;10678;51.002;4.786;2022-10-16T00:56:40;14.60;99.90
21039;DHT22;10678;51.002;4.786;2022-10-16T00:59:13;14.60;99.90
21039;DHT22;10678;51.002;4.786;2022-10-16T01:01:39;14.60;99.90
21039;DHT22;10678;51.002;4.786;2022-10-16T01:04:05;14.60;99.90
21039;DHT22;10678;51.002;4.786;2022-10-16T01:17:57;14.50;99.90
21039;DHT22;10678;51.002;4.786;2022-10-16T01:20:34;14.50;99.90
21039;DHT22;10678;51.002;4.786;2022-10-16T01:23:28;14.40;99.90
21039;DHT22;10678;51.002;4.786;2022-10-16T01:31:32;14.40;99.90
21039;DHT22;10678;51.002;4.786;2022-10-16T01:34:20;14.30;99.90
21039;DHT22;10678;51.002;4.786;2022-10-16T01:37:00;14.30;99.90
21039;DHT22;10678;51.002;4.786;2022-10-16T01:39:31;14.30;99.90
21039;DHT22;10678;51.002;4.786;2022-10-16T01:42:13;14.40;99.90
21039;DHT22;10678;51.002;4.786;2022-10-16T01:44:41;14.40;99.90
21039;DHT22;10678;51.002;4.786;2022-10-16T01:47:09;14.30;99.90
21039;DHT22;10678;51.002;4.786;2022-10-16T01:49:36;14.30;99.90
21039;DHT22;10678;51.002;4.786;2022-10-16T01:52:06;14.40;99.90
21039;DHT22;10678;51.002;4.786;2022-10-16T01:54:35;14.30;99.90
21039;DHT22;10678;51.002;4.786;2022-10-16T01:57:04;14.40;99.90
21039;DHT22;10678;51.002;4.786;2022-10-16T01:59:33;14.40;99.90
21039;DHT22;10678;51.002;4.786;2022-10-16T02:02:06;14.40;99.90
21039;DHT22;10678;51.002;4.786;2022-10-16T02:04:46;14.40;99.90
21039;DHT22;10678;51.002;4.786;2022-10-16T02:07:13;14.30;99.90
21039;DHT22;10678;51.002;4.786;2022-10-16T02:09:39;14.30;99.90
21039;DHT22;10678;51.002;4.786;2022-10-16T02:12:14;14.30;99.90
21039;DHT22;10678;51.002;4.786;2022-10-16T02:14:41;14.30;99.90
21039;DHT22;10678;51.002;4.786;2022-10-16T02:17:17;14.30;99.90
21039;DHT22;10678;51.002;4.786;2022-10-16T02:19:44;14.40;99.90
21039;DHT22;10678;51.002;4.786;2022-10-16T02:22:25;14.30;99.90
21039;DHT22;10678;51.002;4.786;2022-10-16T02:25:09;14.40;99.90
21039;DHT22;10678;51.002;4.786;2022-10-16T02:30:45;14.30;99.90
21039;DHT22;10678;51.002;4.786;2022-10-16T02:33:14;14.30;99.90
21039;DHT22;10678;51.002;4.786;2022-10-16T02:35:41;14.30;99.90
21039;DHT22;10678;51.002;4.786;2022-10-16T02:38:08;14.20;99.90
21039;DHT22;10678;51.002;4.786;2022-10-16T02:40:35;14.30;99.90
21039;DHT22;10678;51.002;4.786;2022-10-16T02:43:04;14.30;99.90
21039;DHT22;10678;51.002;4.786;2022-10-16T02:45:30;14.30;99.90
21039;DHT22;10678;51.002;4.786;2022-10-16T02:47:55;14.40;99.90
21039;DHT22;10678;51.002;4.786;2022-10-16T02:50:21;14.30;99.90
21039;DHT22;10678;51.002;4.786;2022-10-16T02:52:48;14.30;99.90
21039;DHT22;10678;51.002;4.786;2022-10-16T02:55:13;14.30;99.90
21039;DHT22;10678;51.002;4.786;2022-10-16T02:57:39;14.30;99.90
21039;DHT22;10678;51.002;4.786;2022-10-16T03:00:06;14.30;99.90
21039;DHT22;10678;51.002;4.786;2022-10-16T03:02:33;14.40;99.90
21039;DHT22;10678;51.002;4.786;2022-10-16T03:04:58;14.40;99.90
21039;DHT22;10678;51.002;4.786;2022-10-16T03:07:24;14.40;99.90
21039;DHT22;10678;51.002;4.786;2022-10-16T03:09:49;14.40;99.90
21039;DHT22;10678;51.002;4.786;2022-10-16T03:12:15;14.40;99.90
21039;DHT22;10678;51.002;4.786;2022-10-16T03:14:41;14.50;99.90
21039;DHT22;10678;51.002;4.786;2022-10-16T03:17:06;14.50;99.90
21039;DHT22;10678;51.002;4.786;2022-10-16T03:19:32;14.50;99.90
21039;DHT22;10678;51.002;4.786;2022-10-16T03:21:57;14.50;99.90
21039;DHT22;10678;51.002;4.786;2022-10-16T03:24:23;14.50;99.90
21039;DHT22;10678;51.002;4.786;2022-10-16T03:26:48;14.50;99.90
21039;DHT22;10678;51.002;4.786;2022-10-16T03:29:14;14.50;99.90
21039;DHT22;10678;51.002;4.786;2022-10-16T03:31:39;14.50;99.90
21039;DHT22;10678;51.002;4.786;2022-10-16T03:34:05;14.60;99.90
21039;DHT22;10678;51.002;4.786;2022-10-16T03:36:31;14.60;99.90
21039;DHT22;10678;51.002;4.786;2022-10-16T03:38:56;14.70;99.90
21039;DHT22;10678;51.002;4.786;2022-10-16T03:41:22;14.70;99.90
21039;DHT22;10678;51.002;4.786;2022-10-16T03:43:47;14.60;99.90
21039;DHT22;10678;51.002;4.786;2022-10-16T03:46:13;14.60;99.90
21039;DHT22;10678;51.002;4.786;2022-10-16T03:48:39;14.60;99.90
21039;DHT22;10678;51.002;4.786;2022-10-16T03:51:05;14.60;99.90
21039;DHT22;10678;51.002;4.786;2022-10-16T03:53:31;14.70;99.90
21039;DHT22;10678;51.002;4.786;2022-10-16T03:55:56;14.60;99.90
21039;DHT22;10678;51.002;4.786;2022-10-16T03:58:22;14.70;99.90
21039;DHT22;10678;51.002;4.786;2022-10-16T04:00:47;14.70;99.90
21039;DHT22;10678;51.002;4.786;2022-10-16T04:03:14;14.60;99.90
21039;DHT22;10678;51.002;4.786;2022-10-16T04:05:39;14.60;99.90
21039;DHT22;10678;51.002;4.786;2022-10-16T04:08:05;14.60;99.90
21039;DHT22;10678;51.002;4.786;2022-10-16T04:10:31;14.50;99.90
21039;DHT22;10678;51.002;4.786;2022-10-16T04:12:57;14.50;99.90
21039;DHT22;10678;51.002;4.786;2022-10-16T04:15:23;14.50;99.90
21039;DHT22;10678;51.002;4.786;2022-10-16T04:17:49;14.50;99.90
21039;DHT22;10678;51.002;4.786;2022-10-16T04:20:15;14.50;99.90
21039;DHT22;10678;51.002;4.786;2022-10-16T04:22:40;14.50;99.90
21039;DHT22;10678;51.002;4.786;2022-10-16T04:25:06;14.50;99.90
21039;DHT22;10678;51.002;4.786;2022-10-16T04:27:32;14.50;99.90
21039;DHT22;10678;51.002;4.786;2022-10-16T04:29:59;14.50;99.90
21039;DHT22;10678;51.002;4.786;2022-10-16T04:32:25;14.50;99.90
21039;DHT22;10678;51.002;4.786;2022-10-16T04:34:50;14.50;99.90
21039;DHT22;10678;51.002;4.786;2022-10-16T04:37:16;14.50;99.90
21039;DHT22;10678;51.002;4.786;2022-10-16T04:39:41;14.40;99.90
21039;DHT22;10678;51.002;4.786;2022-10-16T04:42:07;14.50;99.90
21039;DHT22;10678;51.002;4.786;2022-10-16T04:44:32;14.50;99.90
21039;DHT22;10678;51.002;4.786;2022-10-16T04:46:58;14.50;99.90
21039;DHT22;10678;51.002;4.786;2022-10-16T04:49:24;14.50;99.90
21039;DHT22;10678;51.002;4.786;2022-10-16T04:51:49;14.50;99.90
21039;DHT22;10678;51.002;4.786;2022-10-16T04:54:15;14.40;99.90
21039;DHT22;10678;51.002;4.786;2022-10-16T04:56:40;14.40;99.90
21039;DHT22;10678;51.002;4.786;2022-10-16T04:59:13;14.40;99.90
21039;DHT22;10678;51.002;4.786;2022-10-16T05:01:38;14.40;99.90
21039;DHT22;10678;51.002;4.786;2022-10-16T05:04:04;14.30;99.90
21039;DHT22;10678;51.002;4.786;2022-10-16T05:06:30;14.30;99.90
21039;DHT22;10678;51.002;4.786;2022-10-16T05:08:55;14.30;99.90
21039;DHT22;10678;51.002;4.786;2022-10-16T05:11:21;14.30;99.90
21039;DHT22;10678;51.002;4.786;2022-10-16T05:13:46;14.30;99.90
21039;DHT22;10678;51.002;4.786;2022-10-16T05:16:12;14.20;99.90
21039;DHT22;10678;51.002;4.786;2022-10-16T05:18:37;14.20;99.90
21039;DHT22;10678;51.002;4.786;2022-10-16T05:21:03;14.20;99.90
21039;DHT22;10678;51.002;4.786;2022-10-16T05:23:29;14.20;99.90
21039;DHT22;10678;51.002;4.786;2022-10-16T05:25:58;14.20;99.90
21039;DHT22;10678;51.002;4.786;2022-10-16T05:28:28;14.20;99.90
21039;DHT22;10678;51.002;4.786;2022-10-16T05:30:55;14.10;99.90
21039;DHT22;10678;51.002;4.786;2022-10-16T05:33:22;14.20;99.90
21039;DHT22;10678;51.002;4.786;2022-10-16T05:35:48;14.10;99.90
21039;DHT22;10678;51.002;4.786;2022-10-16T05:38:15;14.20;99.90
21039;DHT22;10678;51.002;4.786;2022-10-16T05:40:41;14.10;99.90
21039;DHT22;10678;51.002;4.786;2022-10-16T05:43:06;14.20;99.90
21039;DHT22;10678;51.002;4.786;2022-10-16T05:45:32;14.10;99.90
21039;DHT22;10678;51.002;4.786;2022-10-16T05:47:57;14.10;99.90
21039;DHT22;10678;51.002;4.786;2022-10-16T05:50:23;14.00;99.90
21039;DHT22;10678;51.002;4.786;2022-10-16T05:52:49;14.00;99.90
21039;DHT22;10678;51.002;4.786;2022-10-16T05:55:14;14.00;99.90
21039;DHT22;10678;51.002;4.786;2022-10-16T05:57:40;14.00;99.90
21039;DHT22;10678;51.002;4.786;2022-10-16T06:00:07;14.00;99.90
21039;DHT22;10678;51.002;4.786;2022-10-16T06:02:32;13.90;99.90
21039;DHT22;10678;51.002;4.786;2022-10-16T06:04:58;13.90;99.90
21039;DHT22;10678;51.002;4.786;2022-10-16T06:07:24;13.90;99.90
21039;DHT22;10678;51.002;4.786;2022-10-16T06:09:50;14.00;99.90
21039;DHT22;10678;51.002;4.786;2022-10-16T06:12:16;14.00;99.90
21039;DHT22;10678;51.002;4.786;2022-10-16T06:14:42;13.90;99.90
21039;DHT22;10678;51.002;4.786;2022-10-16T06:17:07;14.00;99.90
21039;DHT22;10678;51.002;4.786;2022-10-16T06:19:33;14.00;99.90
21039;DHT22;10678;51.002;4.786;2022-10-16T06:21:58;14.00;99.90
21039;DHT22;10678;51.002;4.786;2022-10-16T06:24:25;14.00;99.90
21039;DHT22;10678;51.002;4.786;2022-10-16T06:26:50;14.10;99.90
21039;DHT22;10678;51.002;4.786;2022-10-16T06:29:16;14.10;99.90
21039;DHT22;10678;51.002;4.786;2022-10-16T06:31:42;14.00;99.90
21039;DHT22;10678;51.002;4.786;2022-10-16T06:34:11;14.00;99.90
21039;DHT22;10678;51.002;4.786;2022-10-16T06:36:38;14.00;99.90
21039;DHT22;10678;51.002;4.786;2022-10-16T06:39:04;14.00;99.90
21039;DHT22;10678;51.002;4.786;2022-10-16T06:41:30;14.00;99.90
21039;DHT22;10678;51.002;4.786;2022-10-16T06:43:56;14.10;99.90
21039;DHT22;10678;51.002;4.786;2022-10-16T06:46:24;14.00;99.90
21039;DHT22;10678;51.002;4.786;2022-10-16T06:48:50;14.20;99.90
21039;DHT22;10678;51.002;4.786;2022-10-16T06:51:18;14.20;99.90
21039;DHT22;10678;51.002;4.786;2022-10-16T06:53:49;14.20;99.90
21039;DHT22;10678;51.002;4.786;2022-10-16T06:56:17;14.20;99.90
21039;DHT22;10678;51.002;4.786;2022-10-16T06:58:43;14.20;99.90
21039;DHT22;10678;51.002;4.786;2022-10-16T07:01:10;14.20;99.90
21039;DHT22;10678;51.002;4.786;2022-10-16T07:03:40;14.10;99.90
21039;DHT22;10678;51.002;4.786;2022-10-16T07:06:07;14.10;99.90
21039;DHT22;10678;51.002;4.786;2022-10-16T07:08:37;14.20;99.90
21039;DHT22;10678;51.002;4.786;2022-10-16T07:11:11;14.30;99.90
21039;DHT22;10678;51.002;4.786;2022-10-16T07:13:39;14.40;99.90
21039;DHT22;10678;51.002;4.786;2022-10-16T07:18:35;14.50;99.90
21039;DHT22;10678;51.002;4.786;2022-10-16T07:21:10;14.50;99.90
21039;DHT22;10678;51.002;4.786;2022-10-16T07:23:36;14.60;99.90
21039;DHT22;10678;51.002;4.786;2022-10-16T07:26:02;14.60;99.90
21039;DHT22;10678;51.002;4.786;2022-10-16T07:28:29;14.60;99.90
21039;DHT22;10678;51.002;4.786;2022-10-16T07:30:54;14.60;99.90
21039;DHT22;10678;51.002;4.786;2022-10-16T07:33:21;14.70;99.90
21039;DHT22;10678;51.002;4.786;2022-10-16T07:35:53;14.70;99.90
21039;DHT22;10678;51.002;4.786;2022-10-16T07:38:20;14.70;99.90
21039;DHT22;10678;51.002;4.786;2022-10-16T07:40:46;15.00;99.90
21039;DHT22;10678;51.002;4.786;2022-10-16T07:43:13;15.20;99.90
21039;DHT22;10678;51.002;4.786;2022-10-16T07:45:49;15.30;99.90
21039;DHT22;10678;51.002;4.786;2022-10-16T07:48:16;15.40;99.90
21039;DHT22;10678;51.002;4.786;2022-10-16T07:50:42;15.30;99.90
21039;DHT22;10678;51.002;4.786;2022-10-16T07:53:08;15.30;99.90
21039;DHT22;10678;51.002;4.786;2022-10-16T07:55:34;15.20;99.90
21039;DHT22;10678;51.002;4.786;2022-10-16T07:58:00;15.20;99.90
21039;DHT22;10678;51.002;4.786;2022-10-16T08:00:25;15.30;99.90
21039;DHT22;10678;51.002;4.786;2022-10-16T08:02:51;15.30;99.90
21039;DHT22;10678;51.002;4.786;2022-10-16T08:05:16;15.30;99.90
21039;DHT22;10678;51.002;4.786;2022-10-16T08:07:42;15.40;99.90
21039;DHT22;10678;51.002;4.786;2022-10-16T08:10:16;15.40;99.90
21039;DHT22;10678;51.002;4.786;2022-10-16T08:12:42;15.40;99.90
21039;DHT22;10678;51.002;4.786;2022-10-16T08:15:08;15.40;99.90
21039;DHT22;10678;51.002;4.786;2022-10-16T08:17:34;15.40;99.90
21039;DHT22;10678;51.002;4.786;2022-10-16T08:20:00;15.50;99.90
21039;DHT22;10678;51.002;4.786;2022-10-16T08:22:25;15.40;99.90
21039;DHT22;10678;51.002;4.786;2022-10-16T08:24:51;15.40;99.90
21039;DHT22;10678;51.002;4.786;2022-10-16T08:27:16;15.60;99.90
21039;DHT22;10678;51.002;4.786;2022-10-16T08:29:42;15.70;99.90
21039;DHT22;10678;51.002;4.786;2022-10-16T08:32:07;15.80;99.90
21039;DHT22;10678;51.002;4.786;2022-10-16T08:34:33;15.80;99.90
21039;DHT22;10678;51.002;4.786;2022-10-16T08:36:59;15.90;99.90
21039;DHT22;10678;51.002;4.786;2022-10-16T08:39:24;15.90;99.90
21039;DHT22;10678;51.002;4.786;2022-10-16T08:42:16;15.90;99.90
21039;DHT22;10678;51.002;4.786;2022-10-16T08:45:07;15.90;99.90
21039;DHT22;10678;51.002;4.786;2022-10-16T08:50:25;16.40;99.90
21039;DHT22;10678;51.002;4.786;2022-10-16T08:52:53;17.10;99.90
21039;DHT22;10678;51.002;4.786;2022-10-16T08:55:52;17.60;99.90
21039;DHT22;10678;51.002;4.786;2022-10-16T08:58:26;17.80;99.90
21039;DHT22;10678;51.002;4.786;2022-10-16T09:00:55;18.20;99.90
21039;DHT22;10678;51.002;4.786;2022-10-16T09:09:18;18.60;99.90
21039;DHT22;10678;51.002;4.786;2022-10-16T09:16:58;19.10;99.90
21039;DHT22;10678;51.002;4.786;2022-10-16T09:19:36;19.20;99.90
21039;DHT22;10678;51.002;4.786;2022-10-16T09:22:15;19.40;99.90
21039;DHT22;10678;51.002;4.786;2022-10-16T09:24:41;19.80;99.90
21039;DHT22;10678;51.002;4.786;2022-10-16T09:27:10;20.30;99.90
21039;DHT22;10678;51.002;4.786;2022-10-16T09:29:36;20.20;99.90
21039;DHT22;10678;51.002;4.786;2022-10-16T09:32:28;20.00;99.90
21039;DHT22;10678;51.002;4.786;2022-10-16T09:34:55;19.90;99.90
21039;DHT22;10678;51.002;4.786;2022-10-16T09:37:23;19.90;99.90
21039;DHT22;10678;51.002;4.786;2022-10-16T09:39:51;20.40;99.90
21039;DHT22;10678;51.002;4.786;2022-10-16T09:44:52;21.10;99.90
21039;DHT22;10678;51.002;4.786;2022-10-16T09:47:21;21.00;99.90
21039;DHT22;10678;51.002;4.786;2022-10-16T09:49:57;20.70;99.90
21039;DHT22;10678;51.002;4.786;2022-10-16T09:52:25;20.60;99.90
21039;DHT22;10678;51.002;4.786;2022-10-16T09:54:56;20.50;99.90
21039;DHT22;10678;51.002;4.786;2022-10-16T09:57:23;20.40;99.90
21039;DHT22;10678;51.002;4.786;2022-10-16T09:59:54;20.40;99.90
21039;DHT22;10678;51.002;4.786;2022-10-16T10:04:53;20.20;99.90
21039;DHT22;10678;51.002;4.786;2022-10-16T10:07:34;20.40;99.90
21039;DHT22;10678;51.002;4.786;2022-10-16T10:10:03;21.00;99.90
21039;DHT22;10678;51.002;4.786;2022-10-16T10:12:30;21.90;99.90
21039;DHT22;10678;51.002;4.786;2022-10-16T10:15:12;22.10;99.90
21039;DHT22;10678;51.002;4.786;2022-10-16T10:17:53;22.50;99.90
21039;DHT22;10678;51.002;4.786;2022-10-16T10:20:31;22.70;99.90
21039;DHT22;10678;51.002;4.786;2022-10-16T10:23:01;22.30;99.90
21039;DHT22;10678;51.002;4.786;2022-10-16T10:28:46;21.40;99.90
21039;DHT22;10678;51.002;4.786;2022-10-16T10:31:36;21.20;99.90
21039;DHT22;10678;51.002;4.786;2022-10-16T10:37:33;21.10;99.90
21039;DHT22;10678;51.002;4.786;2022-10-16T10:40:15;21.20;99.90
21039;DHT22;10678;51.002;4.786;2022-10-16T10:42:56;21.60;99.90
21039;DHT22;10678;51.002;4.786;2022-10-16T10:45:35;22.00;99.90
21039;DHT22;10678;51.002;4.786;2022-10-16T10:48:17;23.10;99.90
21039;DHT22;10678;51.002;4.786;2022-10-16T10:51:12;24.60;99.90
21039;DHT22;10678;51.002;4.786;2022-10-16T11:04:33;22.80;99.90
21039;DHT22;10678;51.002;4.786;2022-10-16T11:07:10;22.70;99.90
21039;DHT22;10678;51.002;4.786;2022-10-16T11:09:48;24.50;99.90
21039;DHT22;10678;51.002;4.786;2022-10-16T11:12:20;26.60;99.90
21039;DHT22;10678;51.002;4.786;2022-10-16T11:18:39;27.00;99.90
21039;DHT22;10678;51.002;4.786;2022-10-16T11:21:04;26.10;99.90
21039;DHT22;10678;51.002;4.786;2022-10-16T11:26:20;24.60;99.90
21039;DHT22;10678;51.002;4.786;2022-10-16T11:28:50;23.60;99.90
21039;DHT22;10678;51.002;4.786;2022-10-16T11:31:22;23.30;99.90
21039;DHT22;10678;51.002;4.786;2022-10-16T11:34:17;22.80;99.90
21039;DHT22;10678;51.002;4.786;2022-10-16T11:39:25;22.50;99.90
21039;DHT22;10678;51.002;4.786;2022-10-16T11:42:23;22.40;99.90
21039;DHT22;10678;51.002;4.786;2022-10-16T11:50:20;22.60;99.90
21039;DHT22;10678;51.002;4.786;2022-10-16T11:55:37;22.70;99.90
21039;DHT22;10678;51.002;4.786;2022-10-16T11:58:27;22.70;99.90
21039;DHT22;10678;51.002;4.786;2022-10-16T12:03:47;22.80;99.90
21039;DHT22;10678;51.002;4.786;2022-10-16T12:06:20;24.50;99.90
21039;DHT22;10678;51.002;4.786;2022-10-16T12:08:50;24.90;99.90
21039;DHT22;10678;51.002;4.786;2022-10-16T12:16:59;23.70;99.90
21039;DHT22;10678;51.002;4.786;2022-10-16T12:19:28;23.40;99.90
21039;DHT22;10678;51.002;4.786;2022-10-16T12:22:00;23.00;99.90
21039;DHT22;10678;51.002;4.786;2022-10-16T12:24:41;22.70;99.90
21039;DHT22;10678;51.002;4.786;2022-10-16T12:29:55;22.60;99.90
21039;DHT22;10678;51.002;4.786;2022-10-16T12:32:33;22.60;99.90
21039;DHT22;10678;51.002;4.786;2022-10-16T12:35:00;22.70;99.90
21039;DHT22;10678;51.002;4.786;2022-10-16T12:37:33;22.70;99.90
21039;DHT22;10678;51.002;4.786;2022-10-16T12:40:12;22.90;99.90
21039;DHT22;10678;51.002;4.786;2022-10-16T12:42:38;22.80;99.90
21039;DHT22;10678;51.002;4.786;2022-10-16T12:45:24;22.80;99.90
21039;DHT22;10678;51.002;4.786;2022-10-16T12:47:52;22.80;99.90
21039;DHT22;10678;51.002;4.786;2022-10-16T12:50:36;22.70;99.90
21039;DHT22;10678;51.002;4.786;2022-10-16T12:53:17;22.70;99.90
21039;DHT22;10678;51.002;4.786;2022-10-16T12:56:08;22.60;99.90
21039;DHT22;10678;51.002;4.786;2022-10-16T12:58:38;22.50;99.90
21039;DHT22;10678;51.002;4.786;2022-10-16T13:09:22;22.00;99.90
21039;DHT22;10678;51.002;4.786;2022-10-16T13:15:06;21.60;99.90
21039;DHT22;10678;51.002;4.786;2022-10-16T13:17:52;21.50;99.90
21039;DHT22;10678;51.002;4.786;2022-10-16T13:20:50;21.30;99.90
21039;DHT22;10678;51.002;4.786;2022-10-16T13:23:42;21.40;99.90
21039;DHT22;10678;51.002;4.786;2022-10-16T13:28:45;21.30;99.90
21039;DHT22;10678;51.002;4.786;2022-10-16T13:31:22;21.50;99.90
21039;DHT22;10678;51.002;4.786;2022-10-16T13:33:59;21.60;99.90
21039;DHT22;10678;51.002;4.786;2022-10-16T13:36:34;21.80;99.90
21039;DHT22;10678;51.002;4.786;2022-10-16T13:39:25;21.60;99.90
21039;DHT22;10678;51.002;4.786;2022-10-16T13:42:10;21.70;99.90
21039;DHT22;10678;51.002;4.786;2022-10-16T13:44:49;21.70;99.90
21039;DHT22;10678;51.002;4.786;2022-10-16T13:47:20;21.70;99.90
21039;DHT22;10678;51.002;4.786;2022-10-16T13:49:46;21.60;99.90
21039;DHT22;10678;51.002;4.786;2022-10-16T13:52:18;21.70;99.90
21039;DHT22;10678;51.002;4.786;2022-10-16T13:54:44;21.70;99.90
21039;DHT22;10678;51.002;4.786;2022-10-16T13:57:14;21.90;99.90
21039;DHT22;10678;51.002;4.786;2022-10-16T13:59:40;21.90;99.90
21039;DHT22;10678;51.002;4.786;2022-10-16T14:04:44;21.70;99.90
21039;DHT22;10678;51.002;4.786;2022-10-16T14:07:19;21.60;99.90
21039;DHT22;10678;51.002;4.786;2022-10-16T14:09:50;21.40;99.90
21039;DHT22;10678;51.002;4.786;2022-10-16T14:12:15;21.50;99.90
21039;DHT22;10678;51.002;4.786;2022-10-16T14:14:43;21.50;99.90
21039;DHT22;10678;51.002;4.786;2022-10-16T14:17:14;21.40;99.90
21039;DHT22;10678;51.002;4.786;2022-10-16T14:19:40;21.30;99.90
21039;DHT22;10678;51.002;4.786;2022-10-16T14:24:55;21.20;99.90
21039;DHT22;10678;51.002;4.786;2022-10-16T14:27:34;21.20;99.90
21039;DHT22;10678;51.002;4.786;2022-10-16T14:30:21;21.10;99.90
21039;DHT22;10678;51.002;4.786;2022-10-16T14:32:58;21.00;99.90
21039;DHT22;10678;51.002;4.786;2022-10-16T14:35:28;21.00;99.90
21039;DHT22;10678;51.002;4.786;2022-10-16T14:37:55;20.90;99.90
21039;DHT22;10678;51.002;4.786;2022-10-16T14:40:24;20.70;99.90
21039;DHT22;10678;51.002;4.786;2022-10-16T14:42:50;20.60;99.90
21039;DHT22;10678;51.002;4.786;2022-10-16T14:45:21;20.50;99.90
21039;DHT22;10678;51.002;4.786;2022-10-16T14:47:52;20.50;99.90
21039;DHT22;10678;51.002;4.786;2022-10-16T14:50:18;20.50;99.90
21039;DHT22;10678;51.002;4.786;2022-10-16T14:52:44;20.30;99.90
21039;DHT22;10678;51.002;4.786;2022-10-16T14:55:10;20.30;99.90
21039;DHT22;10678;51.002;4.786;2022-10-16T14:57:38;20.30;99.90
21039;DHT22;10678;51.002;4.786;2022-10-16T15:00:13;20.20;99.90
21039;DHT22;10678;51.002;4.786;2022-10-16T15:02:40;20.30;99.90
21039;DHT22;10678;51.002;4.786;2022-10-16T15:05:20;20.30;99.90
21039;DHT22;10678;51.002;4.786;2022-10-16T15:07:46;20.30;99.90
21039;DHT22;10678;51.002;4.786;2022-10-16T15:10:13;20.30;99.90
21039;DHT22;10678;51.002;4.786;2022-10-16T15:12:39;20.20;99.90
21039;DHT22;10678;51.002;4.786;2022-10-16T15:17:49;20.20;99.90
21039;DHT22;10678;51.002;4.786;2022-10-16T15:20:19;20.20;99.90
21039;DHT22;10678;51.002;4.786;2022-10-16T15:22:44;20.20;99.90
21039;DHT22;10678;51.002;4.786;2022-10-16T15:25:32;20.10;99.90
21039;DHT22;10678;51.002;4.786;2022-10-16T15:27:59;20.10;99.90
21039;DHT22;10678;51.002;4.786;2022-10-16T15:30:25;20.00;99.90
21039;DHT22;10678;51.002;4.786;2022-10-16T15:32:51;19.90;99.90
21039;DHT22;10678;51.002;4.786;2022-10-16T15:35:17;19.90;99.90
21039;DHT22;10678;51.002;4.786;2022-10-16T15:37:42;19.90;99.90
21039;DHT22;10678;51.002;4.786;2022-10-16T15:40:10;19.80;99.90
21039;DHT22;10678;51.002;4.786;2022-10-16T15:42:35;19.80;99.90
21039;DHT22;10678;51.002;4.786;2022-10-16T15:45:01;19.70;99.90
21039;DHT22;10678;51.002;4.786;2022-10-16T15:47:28;19.60;99.90
21039;DHT22;10678;51.002;4.786;2022-10-16T15:49:54;19.60;99.90
21039;DHT22;10678;51.002;4.786;2022-10-16T15:52:19;19.50;99.90
21039;DHT22;10678;51.002;4.786;2022-10-16T15:54:45;19.30;99.90
21039;DHT22;10678;51.002;4.786;2022-10-16T15:57:10;19.20;99.90
21039;DHT22;10678;51.002;4.786;2022-10-16T15:59:36;19.10;99.90
21039;DHT22;10678;51.002;4.786;2022-10-16T16:02:01;19.00;99.90
21039;DHT22;10678;51.002;4.786;2022-10-16T16:04:29;18.90;99.90
21039;DHT22;10678;51.002;4.786;2022-10-16T16:06:56;18.90;99.90
21039;DHT22;10678;51.002;4.786;2022-10-16T16:09:21;18.80;99.90
21039;DHT22;10678;51.002;4.786;2022-10-16T16:11:47;18.80;99.90
21039;DHT22;10678;51.002;4.786;2022-10-16T16:14:14;18.70;99.90
21039;DHT22;10678;51.002;4.786;2022-10-16T16:16:40;18.60;99.90
21039;DHT22;10678;51.002;4.786;2022-10-16T16:19:06;18.60;99.90
21039;DHT22;10678;51.002;4.786;2022-10-16T16:21:33;18.50;99.90
21039;DHT22;10678;51.002;4.786;2022-10-16T16:23:59;18.50;99.90
21039;DHT22;10678;51.002;4.786;2022-10-16T16:26:26;18.40;99.90
21039;DHT22;10678;51.002;4.786;2022-10-16T16:28:53;18.40;99.90
21039;DHT22;10678;51.002;4.786;2022-10-16T16:31:20;18.30;99.90
21039;DHT22;10678;51.002;4.786;2022-10-16T16:33:46;18.20;99.90
21039;DHT22;10678;51.002;4.786;2022-10-16T16:36:12;18.20;99.90
21039;DHT22;10678;51.002;4.786;2022-10-16T16:38:37;18.10;99.90
21039;DHT22;10678;51.002;4.786;2022-10-16T16:41:20;18.10;99.90
21039;DHT22;10678;51.002;4.786;2022-10-16T16:43:46;18.10;99.90
21039;DHT22;10678;51.002;4.786;2022-10-16T16:46:13;18.10;99.90
21039;DHT22;10678;51.002;4.786;2022-10-16T16:48:39;18.00;99.90
21039;DHT22;10678;51.002;4.786;2022-10-16T16:51:09;17.90;99.90
21039;DHT22;10678;51.002;4.786;2022-10-16T16:53:37;17.90;99.90
21039;DHT22;10678;51.002;4.786;2022-10-16T16:56:03;17.90;99.90
21039;DHT22;10678;51.002;4.786;2022-10-16T16:58:29;17.80;99.90
21039;DHT22;10678;51.002;4.786;2022-10-16T17:00:55;17.80;99.90
21039;DHT22;10678;51.002;4.786;2022-10-16T17:03:21;17.80;99.90
21039;DHT22;10678;51.002;4.786;2022-10-16T17:06:01;17.70;99.90
21039;DHT22;10678;51.002;4.786;2022-10-16T17:08:27;17.70;99.90
21039;DHT22;10678;51.002;4.786;2022-10-16T17:10:54;17.70;99.90
21039;DHT22;10678;51.002;4.786;2022-10-16T17:13:31;17.70;99.90
21039;DHT22;10678;51.002;4.786;2022-10-16T17:15:59;17.60;99.90
21039;DHT22;10678;51.002;4.786;2022-10-16T17:18:25;17.60;99.90
21039;DHT22;10678;51.002;4.786;2022-10-16T17:20:51;17.60;99.90
21039;DHT22;10678;51.002;4.786;2022-10-16T17:23:18;17.60;99.90
21039;DHT22;10678;51.002;4.786;2022-10-16T17:25:45;17.60;99.90
21039;DHT22;10678;51.002;4.786;2022-10-16T17:28:12;17.60;99.90
21039;DHT22;10678;51.002;4.786;2022-10-16T17:30:41;17.60;99.90
21039;DHT22;10678;51.002;4.786;2022-10-16T17:33:07;17.50;99.90
21039;DHT22;10678;51.002;4.786;2022-10-16T17:35:37;17.30;99.90
21039;DHT22;10678;51.002;4.786;2022-10-16T17:38:03;17.30;99.90